Cheikh El Mokrani — C6WD5 — position and weather

sailwx.info

Track history (hours):
 
Tides and Currents Weather Stations Pressure Air Temp Water Temp Dewpoint Dewpoint Depression Visibility Wind Speed Wind Dir Waves Ship Positions

Cheikh El Mokrani

Last reported at 2016-Jul-23 22:32 UTC. Time now 2016-Jul-23 23:12 UTC.
Position N 43°22' E 004°56'.

Length 220 m; draft 9.7 m.

Type: Ship (hazmat cat D). MMSI: 309979000.

Date/timePositionNaut miles runAvg speedWind from/ knotsBaromVisibWave heightAir tempDewpointWater temp
2016-Jul-23 22:32N 43°22' E 004°56'0 0.0
2016-Jul-23 21:32N 43°22' E 004°56'0 0.0
2016-Jul-23 20:32N 43°22' E 004°56'0 0.0
2016-Jul-23 19:32N 43°22' E 004°56'0 0.1
2016-Jul-23 18:32N 43°22' E 004°56'0 0.0
2016-Jul-23 17:32N 43°22' E 004°56'0 0.1
2016-Jul-23 16:32N 43°22' E 004°56'0 0.0
2016-Jul-23 15:32N 43°22' E 004°56'0 0.1
2016-Jul-23 14:32N 43°22' E 004°56'0 0.1
2016-Jul-23 13:32N 43°22' E 004°56'0 0.1
2016-Jul-23 12:32N 43°22' E 004°56'0 0.1
2016-Jul-23 11:32N 43°22' E 004°56'0 0.1
2016-Jul-23 10:32N 43°22' E 004°56'0 0.0
2016-Jul-23 09:32N 43°22' E 004°56'0 0.1
2016-Jul-23 08:32N 43°22' E 004°56'0 0.0
2016-Jul-23 07:32N 43°22' E 004°56'0 0.0
2016-Jul-23 06:32N 43°22' E 004°56'0 0.0
2016-Jul-23 04:32N 43°22' E 004°56'0 0.0
2016-Jul-23 03:32N 43°22' E 004°56'0 0.0
2016-Jul-23 02:32N 43°22' E 004°56'0 0.0
2016-Jul-23 01:32N 43°22' E 004°56'0 0.0
2016-Jul-23 00:32N 43°22' E 004°56'0 0.0
2016-Jul-22 23:32N 43°22' E 004°56'0 0.0
2016-Jul-22 22:33N 43°22' E 004°56'0 0.0
2016-Jul-22 21:33N 43°22' E 004°56'0 0.0
2016-Jul-22 20:33N 43°22' E 004°56'0 0.1
2016-Jul-22 19:33N 43°22' E 004°56'0 0.0
2016-Jul-22 18:33N 43°22' E 004°56'0 0.0
2016-Jul-22 17:33N 43°22' E 004°56'0 0.1
2016-Jul-22 16:33N 43°22' E 004°56'0 0.0
2016-Jul-22 15:33N 43°22' E 004°56'0 0.1
2016-Jul-22 14:33N 43°22' E 004°56'0 0.1
2016-Jul-22 13:33N 43°22' E 004°56'0 0.0
2016-Jul-22 12:33N 43°22' E 004°56'0 0.0
2016-Jul-22 11:33N 43°22' E 004°56'0 0.1
2016-Jul-22 10:33N 43°22' E 004°56'0 0.0
2016-Jul-22 09:33N 43°22' E 004°56'0 0.0
2016-Jul-22 08:33N 43°22' E 004°56'0 0.1
2016-Jul-22 07:33N 43°22' E 004°56'5 2.5
2016-Jul-22 05:33N 43°17' E 004°60'10 9.8
2016-Jul-22 04:33N 43°08' E 004°59'2611.2
2016-Jul-22 02:11N 42°46' E 004°38'711.0
2016-Jul-22 01:33N 42°41' E 004°32'1110.8
2016-Jul-22 00:31N 42°32' E 004°23'1111.0
2016-Jul-21 23:33N 42°23' E 004°15'1111.4
2016-Jul-21 22:33N 42°14' E 004°06'1111.3
2016-Jul-21 21:33N 42°05' E 003°57'1111.3
2016-Jul-21 20:33N 41°55' E 003°48'1111.1
2016-Jul-21 19:33N 41°47' E 003°39'1111.2
2016-Jul-21 18:33N 41°37' E 003°30'1211.8
2016-Jul-21 17:33N 41°29' E 003°20'1514.7
2016-Jul-21 16:33N 41°16' E 003°08'1414.5
2016-Jul-21 15:33N 41°04' E 002°59'1414.4
2016-Jul-21 14:33N 40°53' E 002°47'1414.2
2016-Jul-21 13:33N 40°41' E 002°36'1414.3
2016-Jul-21 12:33N 40°30' E 002°25'1414.5
2016-Jul-21 11:33N 40°18' E 002°14'1514.6
2016-Jul-21 10:33N 40°06' E 002°02'1414.3
2016-Jul-21 09:33N 39°55' E 001°51'1515.2
2016-Jul-21 08:33N 39°42' E 001°39'1515.5
2016-Jul-21 07:33N 39°30' E 001°28'1515.3
2016-Jul-21 06:34N 39°17' E 001°16'1515.2
2016-Jul-21 05:33N 39°05' E 001°05'1515.3
2016-Jul-21 04:33N 38°51' E 000°56'1515.5
2016-Jul-21 03:33N 38°36' E 000°51'1515.5
2016-Jul-21 02:33N 38°22' E 000°45'1615.9
2016-Jul-21 01:33N 38°06' E 000°39'1616.3
2016-Jul-21 00:33N 37°51' E 000°33'1616.3
2016-Jul-20 23:33N 37°35' E 000°27'1615.9
2016-Jul-20 22:33N 37°20' E 000°21'1616.3
2016-Jul-20 21:33N 37°05' E 000°14'1616.2
2016-Jul-20 20:33N 36°49' E 000°09'1615.7
2016-Jul-20 19:33N 36°34' E 000°03'1615.7
2016-Jul-20 18:33N 36°19' W 000°03'1514.8
2016-Jul-20 17:33N 36°05' W 000°08'1312.7
2016-Jul-20 16:33N 35°52' W 000°12'4 0.6
2016-Jul-20 09:05N 35°49' W 000°15'0 0.0
2016-Jul-19 21:06N 35°49' W 000°16'0 0.0
2016-Jul-19 20:30N 35°49' W 000°15'0 0.0
2016-Jul-19 19:23N 35°49' W 000°15'1 0.1
2016-Jul-19 11:33N 35°50' W 000°16'3 0.3
2016-Jul-19 00:28N 35°51' W 000°12'0 0.0
2016-Jul-18 19:04N 35°51' W 000°12'0 0.0
2016-Jul-18 16:16N 35°51' W 000°12'0 0.0
2016-Jul-17 22:08N 35°51' W 000°12'0 0.0
2016-Jul-17 21:33N 35°51' W 000°12'0 0.0
2016-Jul-17 20:33N 35°51' W 000°12'0 0.0
2016-Jul-17 19:11N 35°51' W 000°12'0 0.0
2016-Jul-17 18:33N 35°51' W 000°12'0 0.0
2016-Jul-17 17:32N 35°51' W 000°12'0 0.0
2016-Jul-17 16:33N 35°51' W 000°12'0 0.0
2016-Jul-17 15:23N 35°51' W 000°12'0 0.0
2016-Jul-17 13:27N 35°51' W 000°12'0 0.0
2016-Jul-17 08:33N 35°51' W 000°12'0 0.0
2016-Jul-17 06:21N 35°51' W 000°12'0 0.0
2016-Jul-17 04:15N 35°51' W 000°12'0 0.0
2016-Jul-17 03:20N 35°51' W 000°12'0 0.0
2016-Jul-16 23:22N 35°51' W 000°12'0 0.0
2016-Jul-16 22:32N 35°51' W 000°12'0 0.0
2016-Jul-16 14:33N 35°51' W 000°12'0 0.0
2016-Jul-16 13:30N 35°51' W 000°12'0 0.0
2016-Jul-16 12:19N 35°51' W 000°12'0 0.0
2016-Jul-16 11:33N 35°51' W 000°12'56 5.0
2016-Jul-16 00:15N 36°45' E 000°06'8 8.3
2016-Jul-15 23:16N 36°53' E 000°09'22 8.2
2016-Jul-15 20:33N 37°14' E 000°18'11 8.2
2016-Jul-15 19:16N 37°24' E 000°21'6 8.7
2016-Jul-15 18:33N 37°30' E 000°24'12113.3
2016-Jul-15 09:27N 39°26' E 001°07'1814.7
2016-Jul-15 08:14N 39°43' E 001°14'1014.7
2016-Jul-15 07:33N 39°52' E 001°20'1514.9
2016-Jul-15 06:33N 40°02' E 001°35'1514.9
2016-Jul-15 05:33N 40°12' E 001°49'1514.9
2016-Jul-15 04:33N 40°21' E 002°04'1515.0
2016-Jul-15 03:33N 40°31' E 002°19'1514.8
2016-Jul-15 02:33N 40°41' E 002°33'1514.7
2016-Jul-15 01:33N 40°52' E 002°46'1514.7
2016-Jul-15 00:33N 41°02' E 003°00'27912.7
2016-Jul-14 02:33N 43°20' E 008°28'1515.1
2016-Jul-14 01:34N 43°28' E 008°45'1514.9
2016-Jul-14 00:34N 43°36' E 009°03'1414.5
2016-Jul-13 23:34N 43°44' E 009°20'1413.7
2016-Jul-13 22:33N 43°51' E 009°35'  
Track history (hours):
 
Tides and Currents Weather Stations Pressure Air Temp Water Temp Dewpoint Dewpoint Depression Visibility Wind Speed Wind Dir Waves Ship Positions

Cheikh El Mokrani

Last reported at 2016-Jul-23 22:32 UTC. Time now 2016-Jul-23 23:12 UTC.
Position N 43°22' E 004°56'.

Length 220 m; draft 9.7 m.

Type: Ship (hazmat cat D). MMSI: 309979000.

Date/timePositionNaut miles runAvg speedWind from/ knotsBaromVisibWave heightAir tempDewpointWater temp
2016-Jul-23 22:32N 43°22' E 004°56'0 0.0
2016-Jul-23 21:32N 43°22' E 004°56'0 0.0
2016-Jul-23 20:32N 43°22' E 004°56'0 0.0
2016-Jul-23 19:32N 43°22' E 004°56'0 0.1
2016-Jul-23 18:32N 43°22' E 004°56'0 0.0
2016-Jul-23 17:32N 43°22' E 004°56'0 0.1
2016-Jul-23 16:32N 43°22' E 004°56'0 0.0
2016-Jul-23 15:32N 43°22' E 004°56'0 0.1
2016-Jul-23 14:32N 43°22' E 004°56'0 0.1
2016-Jul-23 13:32N 43°22' E 004°56'0 0.1
2016-Jul-23 12:32N 43°22' E 004°56'0 0.1
2016-Jul-23 11:32N 43°22' E 004°56'0 0.1
2016-Jul-23 10:32N 43°22' E 004°56'0 0.0
2016-Jul-23 09:32N 43°22' E 004°56'0 0.1
2016-Jul-23 08:32N 43°22' E 004°56'0 0.0
2016-Jul-23 07:32N 43°22' E 004°56'0 0.0
2016-Jul-23 06:32N 43°22' E 004°56'0 0.0
2016-Jul-23 04:32N 43°22' E 004°56'0 0.0
2016-Jul-23 03:32N 43°22' E 004°56'0 0.0
2016-Jul-23 02:32N 43°22' E 004°56'0 0.0
2016-Jul-23 01:32N 43°22' E 004°56'0 0.0
2016-Jul-23 00:32N 43°22' E 004°56'0 0.0
2016-Jul-22 23:32N 43°22' E 004°56'0 0.0
2016-Jul-22 22:33N 43°22' E 004°56'0 0.0
2016-Jul-22 21:33N 43°22' E 004°56'0 0.0
2016-Jul-22 20:33N 43°22' E 004°56'0 0.1
2016-Jul-22 19:33N 43°22' E 004°56'0 0.0
2016-Jul-22 18:33N 43°22' E 004°56'0 0.0
2016-Jul-22 17:33N 43°22' E 004°56'0 0.1
2016-Jul-22 16:33N 43°22' E 004°56'0 0.0
2016-Jul-22 15:33N 43°22' E 004°56'0 0.1
2016-Jul-22 14:33N 43°22' E 004°56'0 0.1
2016-Jul-22 13:33N 43°22' E 004°56'0 0.0
2016-Jul-22 12:33N 43°22' E 004°56'0 0.0
2016-Jul-22 11:33N 43°22' E 004°56'0 0.1
2016-Jul-22 10:33N 43°22' E 004°56'0 0.0
2016-Jul-22 09:33N 43°22' E 004°56'0 0.0
2016-Jul-22 08:33N 43°22' E 004°56'0 0.1
2016-Jul-22 07:33N 43°22' E 004°56'5 2.5
2016-Jul-22 05:33N 43°17' E 004°60'10 9.8
2016-Jul-22 04:33N 43°08' E 004°59'2611.2
2016-Jul-22 02:11N 42°46' E 004°38'711.0
2016-Jul-22 01:33N 42°41' E 004°32'1110.8
2016-Jul-22 00:31N 42°32' E 004°23'1111.0
2016-Jul-21 23:33N 42°23' E 004°15'1111.4
2016-Jul-21 22:33N 42°14' E 004°06'1111.3
2016-Jul-21 21:33N 42°05' E 003°57'1111.3
2016-Jul-21 20:33N 41°55' E 003°48'1111.1
2016-Jul-21 19:33N 41°47' E 003°39'1111.2
2016-Jul-21 18:33N 41°37' E 003°30'1211.8
2016-Jul-21 17:33N 41°29' E 003°20'1514.7
2016-Jul-21 16:33N 41°16' E 003°08'1414.5
2016-Jul-21 15:33N 41°04' E 002°59'1414.4
2016-Jul-21 14:33N 40°53' E 002°47'1414.2
2016-Jul-21 13:33N 40°41' E 002°36'1414.3
2016-Jul-21 12:33N 40°30' E 002°25'1414.5
2016-Jul-21 11:33N 40°18' E 002°14'1514.6
2016-Jul-21 10:33N 40°06' E 002°02'1414.3
2016-Jul-21 09:33N 39°55' E 001°51'1515.2
2016-Jul-21 08:33N 39°42' E 001°39'1515.5
2016-Jul-21 07:33N 39°30' E 001°28'1515.3
2016-Jul-21 06:34N 39°17' E 001°16'1515.2
2016-Jul-21 05:33N 39°05' E 001°05'1515.3
2016-Jul-21 04:33N 38°51' E 000°56'1515.5
2016-Jul-21 03:33N 38°36' E 000°51'1515.5
2016-Jul-21 02:33N 38°22' E 000°45'1615.9
2016-Jul-21 01:33N 38°06' E 000°39'1616.3
2016-Jul-21 00:33N 37°51' E 000°33'1616.3
2016-Jul-20 23:33N 37°35' E 000°27'1615.9
2016-Jul-20 22:33N 37°20' E 000°21'1616.3
2016-Jul-20 21:33N 37°05' E 000°14'1616.2
2016-Jul-20 20:33N 36°49' E 000°09'1615.7
2016-Jul-20 19:33N 36°34' E 000°03'1615.7
2016-Jul-20 18:33N 36°19' W 000°03'1514.8
2016-Jul-20 17:33N 36°05' W 000°08'1312.7
2016-Jul-20 16:33N 35°52' W 000°12'4 0.6
2016-Jul-20 09:05N 35°49' W 000°15'0 0.0
2016-Jul-19 21:06N 35°49' W 000°16'0 0.0
2016-Jul-19 20:30N 35°49' W 000°15'0 0.0
2016-Jul-19 19:23N 35°49' W 000°15'1 0.1
2016-Jul-19 11:33N 35°50' W 000°16'3 0.3
2016-Jul-19 00:28N 35°51' W 000°12'0 0.0
2016-Jul-18 19:04N 35°51' W 000°12'0 0.0
2016-Jul-18 16:16N 35°51' W 000°12'0 0.0
2016-Jul-17 22:08N 35°51' W 000°12'0 0.0
2016-Jul-17 21:33N 35°51' W 000°12'0 0.0
2016-Jul-17 20:33N 35°51' W 000°12'0 0.0
2016-Jul-17 19:11N 35°51' W 000°12'0 0.0
2016-Jul-17 18:33N 35°51' W 000°12'0 0.0
2016-Jul-17 17:32N 35°51' W 000°12'0 0.0
2016-Jul-17 16:33N 35°51' W 000°12'0 0.0
2016-Jul-17 15:23N 35°51' W 000°12'0 0.0
2016-Jul-17 13:27N 35°51' W 000°12'0 0.0
2016-Jul-17 08:33N 35°51' W 000°12'0 0.0
2016-Jul-17 06:21N 35°51' W 000°12'0 0.0
2016-Jul-17 04:15N 35°51' W 000°12'0 0.0
2016-Jul-17 03:20N 35°51' W 000°12'0 0.0
2016-Jul-16 23:22N 35°51' W 000°12'0 0.0
2016-Jul-16 22:32N 35°51' W 000°12'0 0.0
2016-Jul-16 14:33N 35°51' W 000°12'0 0.0
2016-Jul-16 13:30N 35°51' W 000°12'0 0.0
2016-Jul-16 12:19N 35°51' W 000°12'0 0.0
2016-Jul-16 11:33N 35°51' W 000°12'56 5.0
2016-Jul-16 00:15N 36°45' E 000°06'8 8.3
2016-Jul-15 23:16N 36°53' E 000°09'22 8.2
2016-Jul-15 20:33N 37°14' E 000°18'11 8.2
2016-Jul-15 19:16N 37°24' E 000°21'6 8.7
2016-Jul-15 18:33N 37°30' E 000°24'12113.3
2016-Jul-15 09:27N 39°26' E 001°07'1814.7
2016-Jul-15 08:14N 39°43' E 001°14'1014.7
2016-Jul-15 07:33N 39°52' E 001°20'1514.9
2016-Jul-15 06:33N 40°02' E 001°35'1514.9
2016-Jul-15 05:33N 40°12' E 001°49'1514.9
2016-Jul-15 04:33N 40°21' E 002°04'1515.0
2016-Jul-15 03:33N 40°31' E 002°19'1514.8
2016-Jul-15 02:33N 40°41' E 002°33'1514.7
2016-Jul-15 01:33N 40°52' E 002°46'1514.7
2016-Jul-15 00:33N 41°02' E 003°00'27912.7
2016-Jul-14 02:33N 43°20' E 008°28'1515.1
2016-Jul-14 01:34N 43°28' E 008°45'1514.9
2016-Jul-14 00:34N 43°36' E 009°03'1414.5
2016-Jul-13 23:34N 43°44' E 009°20'1413.7
2016-Jul-13 22:33N 43°51' E 009°35'  

Dump ship's entire track history